Terminal Aerodrome Forecast
Issued by NWS

Home | Current Version | Previous Version | Text Only | Print | Product List | Glossary On
Versions: 1 2 3 4 5 6 7 8 9 10 11 12 13 14 15 16 17
000
FTUS46 KLOX 032340
TAFLGB
TAF
KLGB 032340Z 0400/0424 20010KT P6SM SKC
     FM040100 29009KT P6SM SKC
     FM040500 VRB03KT P6SM OVC020
     FM041900 17005KT P6SM SCT030
     FM042100 20009KT P6SM SKC
      AMD NOT SKED=

USA.gov is the U.S. government's official web portal to all federal, state and local government web resources and services.